Terminal Aerodrome Forecast
Issued by NWS

Home | Current Version | Previous Version | Text Only | Print | Product List | Glossary On
Versions: 1 2 3 4 5 6 7 8 9 10 11 12 13 14 15 16 17 18 19 20 21 22 23 24 25 26 27 28 29 30 31 32 33 34 35
000
FTPA31 PHFO 252000 AAA
TAFITO
TAF AMD
PHTO 252000Z 2520/2618 02011KT 6SM -RA SCT010 BKN020 OVC040
      TEMPO 2520/2522 35012G20KT 2SM +RA BKN010 OVC015
     FM260400 33008KT P6SM -RA SCT015 BKN030 OVC040=

USA.gov is the U.S. government's official web portal to all federal, state and local government web resources and services.